»·PEaware :: N707CP KOTH-KSUN

N707CP :: KOTH-KSUN

FLIGHT INFORMATION

Flight Status: Arrived
Operator: Privately registered:
United States
More flights under this callsign
Pilot: Chase W. (8260)
Aircraft: MITSUBISHI MU-2 MARQUISE
(MU2)
More flights by this aircraft type
Origin: KOTH North Bend Mun
United States
Destination: KSUN Friedman Meml
United States
More flights between these airports :: More routes between these airports
Route: OTH6 OTH V121 EUG V121 DSD V121 IMB V500 BOI V444 SOLDE
File this flight plan on PilotEdge
Remarks:
Altitude:
(Current/Filed)
23,000ft
Speed:
(Current/Filed)
250kts
Departed: 25-Nov-17 01:32 PM
Arrived: 25-Nov-17 03:36 PM
Distance/Time
Traveled:
433nm/2:04
Distance/Time
To Go:
Arrived

Flight Plot

Page will automatically refresh every two minutes.

Flight plan parsing failed; only flown route is shown


Map Options




Map Legend


Flown Route
Filed Route
Departure Airport
Arrival Airport
Navaid (VOR, NDB)
Fix

Horizontal Profiles

Position Reports

Time Latitude Longitude Heading Altitude Ground
Speed
25-Nov-17 13:17 43.415405 -124.245417 332 21ft 0kts
25-Nov-17 13:18 43.415405 -124.245417 332 21ft 0kts
25-Nov-17 13:19 43.415405 -124.245417 330 21ft 0kts
25-Nov-17 13:20 43.415405 -124.245417 332 21ft 0kts
25-Nov-17 13:21 43.415405 -124.245417 332 21ft 0kts
25-Nov-17 13:22 43.415405 -124.245417 332 21ft 0kts
25-Nov-17 13:23 43.415405 -124.245417 332 21ft 0kts
25-Nov-17 13:24 43.415405 -124.245417 332 21ft 0kts
25-Nov-17 13:25 43.415405 -124.245417 332 21ft 0kts
25-Nov-17 13:26 43.415405 -124.245417 332 21ft 0kts
25-Nov-17 13:27 43.415405 -124.245417 332 21ft 0kts
25-Nov-17 13:28 43.415405 -124.245417 332 21ft 0kts
25-Nov-17 13:29 43.415405 -124.245417 332 21ft 0kts
25-Nov-17 13:30 43.415405 -124.245417 332 21ft 0kts
25-Nov-17 13:31 43.415405 -124.245416 332 21ft 0kts
25-Nov-17 13:32 43.416115 -124.245142 60 21ft 0kts
25-Nov-17 13:33 43.416140 -124.245081 60 21ft 2kts
25-Nov-17 13:34 43.418255 -124.246703 298 21ft 1kts
25-Nov-17 13:35 43.417244 -124.251377 240 21ft 21kts
25-Nov-17 13:36 43.414162 -124.258833 240 20ft 18kts
25-Nov-17 13:37 43.421019 -124.245492 61 51ft 157kts
25-Nov-17 13:38 43.454424 -124.233843 274 2037ft 203kts
25-Nov-17 13:39 43.433170 -124.296335 240 5069ft 182kts
25-Nov-17 13:40 43.460591 -124.344928 24 7647ft 220kts
25-Nov-17 13:41 43.467551 -124.290977 134 9777ft 175kts
25-Nov-17 13:42 43.444164 -124.242852 140 11399ft 201kts
25-Nov-17 13:43 43.426176 -124.204724 143 13433ft 179kts
25-Nov-17 13:44 43.415688 -124.161726 87 15471ft 217kts
25-Nov-17 13:45 43.449661 -124.115821 43 17023ft 255kts
25-Nov-17 13:46 43.489553 -124.062840 43 19130ft 256kts
25-Nov-17 13:47 43.531678 -124.013143 44 20773ft 273kts
25-Nov-17 13:48 43.574325 -123.958239 46 22725ft 272kts
25-Nov-17 13:49 43.618917 -123.899009 45 23034ft 342kts
25-Nov-17 13:50 43.662269 -123.841361 45 22995ft 372kts
25-Nov-17 13:51 43.724233 -123.758606 45 22918ft 390kts
25-Nov-17 13:52 43.777824 -123.686931 45 22939ft 396kts
25-Nov-17 13:53 43.827511 -123.620333 45 22959ft 398kts
25-Nov-17 13:54 43.882894 -123.545806 45 22971ft 400kts
25-Nov-17 13:55 43.934394 -123.476351 45 22972ft 400kts
25-Nov-17 13:56 43.984017 -123.409228 45 22974ft 401kts
25-Nov-17 13:57 44.032282 -123.343743 46 22972ft 401kts
25-Nov-17 13:58 44.081514 -123.276818 46 22967ft 401kts
25-Nov-17 13:59 44.118914 -123.209851 80 22947ft 382kts
25-Nov-17 14:00 44.129331 -123.116468 94 22954ft 369kts
25-Nov-17 14:01 44.136251 -123.022287 93 22954ft 370kts
25-Nov-17 14:02 44.143148 -122.929577 92 22956ft 373kts
25-Nov-17 14:03 44.150271 -122.833916 91 22958ft 376kts
25-Nov-17 14:04 44.157699 -122.733697 91 22959ft 378kts
25-Nov-17 14:05 44.165069 -122.632227 91 22960ft 379kts
25-Nov-17 14:06 44.172735 -122.525174 91 22961ft 379kts
25-Nov-17 14:07 44.180693 -122.412337 91 22962ft 380kts
25-Nov-17 14:08 44.188896 -122.294522 92 22982ft 379kts
25-Nov-17 14:09 44.197462 -122.169786 92 23023ft 373kts
25-Nov-17 14:10 44.206231 -122.038087 93 23037ft 367kts
25-Nov-17 14:11 44.214445 -121.913174 93 23039ft 365kts
25-Nov-17 14:12 44.222734 -121.785354 93 23041ft 364kts
25-Nov-17 14:13 44.230067 -121.670482 93 23043ft 364kts
25-Nov-17 14:14 44.237158 -121.557635 93 23044ft 364kts
25-Nov-17 14:15 44.243686 -121.452411 93 23045ft 364kts
25-Nov-17 14:16 44.249996 -121.348902 94 23046ft 365kts
25-Nov-17 14:17 44.267453 -121.244522 75 23016ft 375kts
25-Nov-17 14:18 44.292797 -121.147085 75 23017ft 373kts
25-Nov-17 14:19 44.316970 -121.052239 75 23021ft 372kts
25-Nov-17 14:20 44.341485 -120.955671 74 23023ft 371kts
25-Nov-17 14:21 44.363168 -120.870153 74 23024ft 371kts
25-Nov-17 14:22 44.393776 -120.748635 74 23025ft 370kts
25-Nov-17 14:23 44.420184 -120.643461 74 23027ft 370kts
25-Nov-17 14:24 44.441940 -120.556255 74 23028ft 371kts
25-Nov-17 14:25 44.471533 -120.437188 74 23029ft 371kts
25-Nov-17 14:26 44.490949 -120.358645 74 23031ft 371kts
25-Nov-17 14:27 44.513554 -120.266989 75 23021ft 370kts
25-Nov-17 14:28 44.536419 -120.173732 75 23030ft 370kts
25-Nov-17 14:29 44.558560 -120.083065 75 23045ft 369kts
25-Nov-17 14:30 44.580297 -119.993829 75 23060ft 369kts
25-Nov-17 14:31 44.602773 -119.901087 75 23063ft 370kts
25-Nov-17 14:32 44.624932 -119.809368 75 23064ft 370kts
25-Nov-17 14:33 44.643381 -119.715280 101 23054ft 355kts
25-Nov-17 14:34 44.624643 -119.630022 122 23069ft 337kts
25-Nov-17 14:35 44.599748 -119.544495 122 23068ft 340kts
25-Nov-17 14:36 44.571687 -119.448589 122 23067ft 341kts
25-Nov-17 14:37 44.546720 -119.363555 122 23068ft 342kts
25-Nov-17 14:38 44.522484 -119.281307 123 23058ft 341kts
25-Nov-17 14:39 44.497505 -119.196987 123 23059ft 341kts
25-Nov-17 14:40 44.472336 -119.112235 123 23059ft 340kts
25-Nov-17 14:41 44.446989 -119.027133 123 23060ft 340kts
25-Nov-17 14:42 44.422461 -118.945286 123 23061ft 340kts
25-Nov-17 14:43 44.397177 -118.861030 122 23061ft 341kts
25-Nov-17 14:44 44.372519 -118.778908 122 23062ft 341kts
25-Nov-17 14:45 44.348595 -118.699484 122 23063ft 342kts
25-Nov-17 14:46 44.325388 -118.622788 122 23063ft 342kts
25-Nov-17 14:47 44.301471 -118.544037 122 23064ft 342kts
25-Nov-17 14:48 44.276235 -118.461231 122 23064ft 342kts
25-Nov-17 14:49 44.254361 -118.389680 122 23064ft 342kts
25-Nov-17 14:50 44.230017 -118.310175 123 23056ft 342kts
25-Nov-17 14:51 44.195959 -118.199554 123 23099ft 339kts
25-Nov-17 14:52 44.159271 -118.080872 123 23150ft 338kts
25-Nov-17 14:53 44.122362 -117.961875 123 23164ft 339kts
25-Nov-17 14:54 44.086719 -117.847483 123 23184ft 339kts
25-Nov-17 14:55 44.052254 -117.737432 123 23209ft 339kts
25-Nov-17 14:56 44.018111 -117.628845 123 23222ft 339kts
25-Nov-17 14:57 43.983518 -117.519241 123 23225ft 339kts
25-Nov-17 14:58 43.949019 -117.410410 123 23226ft 340kts
25-Nov-17 14:59 43.915917 -117.306387 124 23217ft 339kts
25-Nov-17 15:00 43.884733 -117.208862 124 23227ft 338kts
25-Nov-17 15:01 43.852847 -117.109447 124 23228ft 339kts
25-Nov-17 15:02 43.820084 -117.007866 123 23227ft 341kts
25-Nov-17 15:03 43.788940 -116.911547 123 23224ft 343kts
25-Nov-17 15:04 43.756188 -116.810474 122 23218ft 345kts
25-Nov-17 15:05 43.723655 -116.710453 122 23214ft 346kts
25-Nov-17 15:06 43.691380 -116.611646 122 23212ft 346kts
25-Nov-17 15:07 43.657821 -116.509391 122 23205ft 347kts
25-Nov-17 15:08 43.625747 -116.411971 123 23199ft 347kts
25-Nov-17 15:09 43.594955 -116.318749 123 23190ft 347kts
25-Nov-17 15:10 43.564465 -116.226793 123 23193ft 346kts
25-Nov-17 15:11 43.541155 -116.126382 110 23198ft 355kts
25-Nov-17 15:12 43.523442 -116.024838 111 23199ft 355kts
25-Nov-17 15:13 43.505754 -115.925147 111 23200ft 355kts
25-Nov-17 15:14 43.488678 -115.827886 111 22703ft 347kts
25-Nov-17 15:15 43.473336 -115.741103 111 21475ft 331kts
25-Nov-17 15:16 43.457713 -115.656377 111 20276ft 341kts
25-Nov-17 15:17 43.442074 -115.568583 109 19149ft 358kts
25-Nov-17 15:18 43.429314 -115.496468 109 18230ft 359kts
25-Nov-17 15:19 43.418285 -115.434374 109 17378ft 347kts
25-Nov-17 15:20 43.408692 -115.381964 109 16646ft 339kts
25-Nov-17 15:21 43.400919 -115.339715 110 16043ft 334kts
25-Nov-17 15:22 43.383918 -115.247447 104 14682ft 314kts
25-Nov-17 15:23 43.364594 -115.142374 104 13020ft 301kts
25-Nov-17 15:24 43.350823 -115.068268 104 11821ft 295kts
25-Nov-17 15:25 43.337509 -114.996878 104 10730ft 292kts
25-Nov-17 15:26 43.322618 -114.919886 105 10679ft 282kts
25-Nov-17 15:27 43.307272 -114.840915 104 10680ft 276kts
25-Nov-17 15:28 43.288560 -114.740175 104 10681ft 273kts
25-Nov-17 15:29 43.269425 -114.639962 104 10682ft 272kts
25-Nov-17 15:30 43.250338 -114.540526 104 10682ft 271kts
25-Nov-17 15:31 43.236992 -114.471927 106 10971ft 268kts
25-Nov-17 15:32 43.220326 -114.385845 106 10989ft 281kts
25-Nov-17 15:33 43.221583 -114.304258 47 10048ft 270kts
25-Nov-17 15:34 43.269924 -114.249212 35 8619ft 250kts
25-Nov-17 15:35 43.315522 -114.200317 34 8595ft 223kts
25-Nov-17 15:36 43.360640 -114.192352 330 8033ft 188kts
25-Nov-17 15:37 43.399510 -114.219051 330 7421ft 156kts
25-Nov-17 15:38 43.430196 -114.237897 335 6766ft 137kts
25-Nov-17 15:39 43.459629 -114.253806 330 6174ft 118kts
25-Nov-17 15:40 43.482596 -114.275191 322 5784ft 117kts
25-Nov-17 15:41 43.503705 -114.295513 324 5323ft 7kts
25-Nov-17 15:42 43.503267 -114.296662 140 5322ft 10kts
25-Nov-17 15:43 43.499019 -114.292631 225 5323ft 2kts
25-Nov-17 15:44 43.498770 -114.293495 323 5322ft 0kts

Navigation Log

Ident Type
Flight plan parsing failed, navigation log unavailable